createdAt,value
2023-04-11T00:00:01.422Z,11.41
2023-04-11T00:01:01.918Z,11.44
2023-04-11T00:02:02.412Z,11.65
2023-04-11T00:03:03.050Z,11.59
2023-04-11T00:04:03.165Z,11.48
2023-04-11T00:05:03.361Z,11.65
2023-04-11T00:06:03.290Z,11.66
2023-04-11T00:07:03.776Z,11.63
2023-04-11T00:08:04.281Z,11.77
2023-04-11T00:09:04.771Z,11.86
2023-04-11T00:10:05.266Z,11.88
2023-04-11T00:11:05.772Z,12.04
2023-04-11T00:12:06.255Z,12.15
2023-04-11T00:13:06.737Z,12.18
2023-04-11T00:14:07.192Z,12.27
2023-04-11T00:15:07.659Z,12.29
2023-04-11T00:16:08.197Z,12.80
2023-04-11T00:17:08.696Z,12.82
2023-04-11T00:18:09.177Z,12.86
2023-04-11T00:19:09.684Z,12.85
2023-04-11T00:20:10.148Z,12.82
2023-04-11T00:21:10.652Z,12.83
2023-04-11T00:22:11.144Z,12.85
2023-04-11T00:23:11.631Z,12.87
2023-04-11T00:24:12.121Z,12.95
2023-04-11T00:25:12.647Z,13.05
2023-04-11T00:26:13.122Z,13.11
2023-04-11T00:27:13.633Z,13.23
2023-04-11T00:28:14.117Z,13.53
2023-04-11T00:29:14.250Z,13.63
2023-04-11T00:30:14.733Z,13.59
2023-04-11T00:31:15.251Z,13.53
2023-04-11T00:32:15.729Z,13.54
2023-04-11T00:33:16.197Z,13.60
2023-04-11T00:34:16.682Z,13.59
2023-04-11T00:35:17.174Z,13.68
2023-04-11T00:36:17.770Z,13.63
2023-04-11T00:37:17.752Z,13.59
2023-04-11T00:38:18.279Z,13.56
2023-04-11T00:39:18.785Z,13.63
2023-04-11T00:40:19.280Z,13.71
2023-04-11T00:41:19.743Z,13.62
2023-04-11T00:42:20.227Z,13.68
2023-04-11T00:43:20.698Z,13.71
2023-04-11T00:44:21.190Z,13.83
2023-04-11T00:45:21.680Z,13.83
2023-04-11T00:46:22.192Z,13.81
2023-04-11T00:47:22.769Z,13.85
2023-04-11T00:48:23.347Z,13.81
2023-04-11T00:49:23.832Z,13.77
2023-04-11T00:50:23.899Z,13.85
2023-04-11T00:51:24.381Z,13.79
2023-04-11T00:52:24.858Z,13.78
2023-04-11T00:53:25.337Z,13.90
2023-04-11T00:54:25.843Z,13.96
2023-04-11T00:55:26.357Z,14.00
2023-04-11T00:56:26.848Z,14.03
2023-04-11T00:57:27.344Z,14.03
2023-04-11T00:58:27.830Z,13.99
2023-04-11T00:59:28.305Z,13.93
2023-04-11T01:00:28.798Z,13.92
2023-04-11T01:01:29.330Z,13.96
2023-04-11T01:02:29.976Z,13.99
2023-04-11T01:03:30.373Z,13.97
2023-04-11T01:04:30.430Z,14.00
2023-04-11T01:05:30.930Z,13.92
2023-04-11T01:06:31.398Z,13.78
2023-04-11T01:07:31.887Z,13.89
2023-04-11T01:08:32.366Z,13.87
2023-04-11T01:09:32.845Z,13.97
2023-04-11T01:10:33.312Z,13.96
2023-04-11T01:11:33.838Z,13.85
2023-04-11T01:12:34.327Z,13.89
2023-04-11T01:13:34.834Z,13.95
2023-04-11T01:14:35.334Z,14.00
2023-04-11T01:15:35.823Z,13.97
2023-04-11T01:16:36.350Z,13.96
2023-04-11T01:17:36.930Z,13.93
2023-04-11T01:18:37.448Z,13.97
2023-04-11T01:19:37.922Z,14.04
2023-04-11T01:20:38.464Z,14.03
2023-04-11T01:21:38.990Z,14.00
2023-04-11T01:22:39.480Z,13.96
2023-04-11T01:23:39.960Z,13.97
2023-04-11T01:24:40.448Z,13.87
2023-04-11T01:25:40.941Z,13.72
2023-04-11T01:26:41.415Z,13.63
2023-04-11T01:27:41.899Z,13.62
2023-04-11T01:28:42.397Z,13.53
2023-04-11T01:29:42.877Z,13.47
2023-04-11T01:30:43.389Z,13.44
2023-04-11T01:31:43.852Z,13.60
2023-04-11T01:32:44.360Z,13.63
2023-04-11T01:33:44.880Z,13.68
2023-04-11T01:34:45.352Z,13.74
2023-04-11T01:35:45.830Z,13.86
2023-04-11T01:36:46.314Z,13.92
2023-04-11T01:37:46.941Z,13.78
2023-04-11T01:38:47.424Z,13.70
2023-04-11T01:39:47.898Z,13.71
2023-04-11T01:40:48.379Z,13.67
2023-04-11T01:41:48.847Z,13.56
2023-04-11T01:42:49.360Z,13.28
2023-04-11T01:43:49.859Z,13.28
2023-04-11T01:44:50.367Z,13.18
2023-04-11T01:45:50.866Z,13.05
2023-04-11T01:46:51.333Z,13.13
2023-04-11T01:47:51.870Z,13.04
2023-04-11T01:48:52.423Z,13.05
2023-04-11T01:49:52.935Z,13.13
2023-04-11T01:50:53.429Z,13.20
2023-04-11T01:51:53.915Z,13.13
2023-04-11T01:52:54.400Z,13.15
2023-04-11T01:53:54.943Z,13.15
2023-04-11T01:54:55.486Z,13.25
2023-04-11T01:55:55.993Z,13.35
2023-04-11T01:56:56.480Z,13.38
2023-04-11T01:57:56.992Z,13.25
2023-04-11T01:58:57.811Z,13.19
2023-04-11T01:59:57.921Z,13.12
2023-04-11T02:00:58.389Z,12.95
2023-04-11T02:01:59.015Z,12.94
2023-04-11T02:02:59.209Z,12.87
2023-04-11T02:03:59.368Z,12.86
2023-04-11T02:04:59.346Z,12.78
2023-04-11T02:05:59.838Z,12.82
2023-04-11T02:07:00.331Z,12.75
2023-04-11T02:08:00.813Z,12.68
2023-04-11T02:09:01.285Z,12.73
2023-04-11T02:10:01.770Z,12.67
2023-04-11T02:11:02.243Z,12.65
2023-04-11T02:12:02.735Z,12.62
2023-04-11T02:13:03.231Z,12.57
2023-04-11T02:14:03.700Z,12.68
2023-04-11T02:15:04.162Z,12.68
2023-04-11T02:16:04.697Z,12.57
2023-04-11T02:17:05.209Z,12.47
2023-04-11T02:18:05.747Z,12.55
2023-04-11T02:19:06.359Z,12.50
2023-04-11T02:20:06.863Z,12.35
2023-04-11T02:21:07.346Z,12.32
2023-04-11T02:22:07.817Z,12.25
2023-04-11T02:23:08.306Z,12.22
2023-04-11T02:24:08.812Z,12.20
2023-04-11T02:25:09.292Z,12.24
2023-04-11T02:26:09.913Z,12.18
2023-04-11T02:27:10.457Z,12.17
2023-04-11T02:28:10.941Z,12.20
2023-04-11T02:29:11.414Z,12.17
2023-04-11T02:30:11.884Z,12.07
2023-04-11T02:31:12.424Z,12.13
2023-04-11T02:32:13.072Z,12.17
2023-04-11T02:33:13.122Z,12.15
2023-04-11T02:34:13.618Z,12.09
2023-04-11T02:35:14.101Z,12.22
2023-04-11T02:36:14.708Z,12.27
2023-04-11T02:37:15.244Z,12.10
2023-04-11T02:38:15.725Z,12.15
2023-04-11T02:39:16.189Z,12.15
2023-04-11T02:40:16.672Z,12.20
2023-04-11T02:41:17.183Z,12.00
2023-04-11T02:42:17.687Z,11.86
2023-04-11T02:43:18.174Z,11.72
2023-04-11T02:44:18.650Z,11.59
2023-04-11T02:45:19.120Z,11.37
2023-04-11T02:46:19.641Z,11.33
2023-04-11T02:47:20.215Z,11.19
2023-04-11T02:48:20.725Z,11.15
2023-04-11T02:49:21.200Z,10.97
2023-04-11T02:50:21.681Z,10.87
2023-04-11T02:51:22.181Z,10.89
2023-04-11T02:52:22.666Z,10.89
2023-04-11T02:53:23.136Z,10.69
2023-04-11T02:54:23.616Z,10.86
2023-04-11T02:55:24.111Z,10.74
2023-04-11T02:56:24.607Z,10.68
2023-04-11T02:57:25.100Z,10.57
2023-04-11T02:58:25.571Z,10.57
2023-04-11T02:59:26.056Z,10.46
2023-04-11T03:00:26.549Z,10.46
2023-04-11T03:01:27.080Z,10.48
2023-04-11T03:02:27.787Z,10.53
2023-04-11T03:03:28.032Z,10.48
2023-04-11T03:04:28.092Z,10.44
2023-04-11T03:05:28.624Z,10.38
2023-04-11T03:06:29.108Z,10.37
2023-04-11T03:07:29.583Z,10.38
2023-04-11T03:08:30.072Z,10.41
2023-04-11T03:09:30.568Z,10.37
2023-04-11T03:10:31.128Z,10.35
2023-04-11T03:11:31.620Z,10.37
2023-04-11T03:12:32.113Z,10.34
2023-04-11T03:13:32.610Z,10.30
2023-04-11T03:14:33.106Z,10.37
2023-04-11T03:15:33.743Z,10.35
2023-04-11T03:16:34.217Z,10.31
2023-04-11T03:17:34.718Z,10.33
2023-04-11T03:18:35.221Z,10.30
2023-04-11T03:19:35.726Z,10.28
2023-04-11T03:20:36.192Z,10.28
2023-04-11T03:21:36.670Z,10.23
2023-04-11T03:22:37.166Z,10.23
2023-04-11T03:23:37.646Z,10.19
2023-04-11T03:24:38.117Z,10.25
2023-04-11T03:25:38.583Z,10.22
2023-04-11T03:26:39.065Z,10.19
2023-04-11T03:27:39.554Z,10.20
2023-04-11T03:28:40.043Z,10.20
2023-04-11T03:29:40.560Z,10.20
2023-04-11T03:30:41.081Z,10.19
2023-04-11T03:31:41.600Z,10.16
2023-04-11T03:32:42.097Z,10.15
2023-04-11T03:33:42.605Z,10.12
2023-04-11T03:34:43.101Z,10.09
2023-04-11T03:35:43.611Z,10.16
2023-04-11T03:36:44.093Z,10.15
2023-04-11T03:37:44.572Z,10.17
2023-04-11T03:38:45.060Z,10.17
2023-04-11T03:39:45.551Z,10.17
2023-04-11T03:40:46.040Z,10.15
2023-04-11T03:41:46.540Z,10.17
2023-04-11T03:42:47.035Z,10.19
2023-04-11T03:43:47.531Z,10.17
2023-04-11T03:44:48.022Z,10.12
2023-04-11T03:45:48.512Z,10.16
2023-04-11T03:46:49.057Z,10.19
2023-04-11T03:47:49.625Z,10.04
2023-04-11T03:48:50.148Z,10.10
2023-04-11T03:49:50.626Z,10.15
2023-04-11T03:50:51.087Z,10.07
2023-04-11T03:51:51.545Z,10.05
2023-04-11T03:52:52.008Z,9.95
2023-04-11T03:53:52.488Z,10.01
2023-04-11T03:54:53.012Z,10.01
2023-04-11T03:55:53.487Z,9.98
2023-04-11T03:56:53.934Z,9.97
2023-04-11T03:57:54.364Z,9.94
2023-04-11T03:58:55.031Z,9.98
2023-04-11T03:59:55.070Z,10.05
2023-04-11T04:00:55.528Z,10.04
2023-04-11T04:01:56.026Z,10.02
2023-04-11T04:02:56.690Z,9.98
2023-04-11T04:03:56.989Z,9.92
2023-04-11T04:04:57.369Z,9.94
2023-04-11T04:05:57.849Z,9.91
2023-04-11T04:06:58.302Z,9.91
2023-04-11T04:07:58.749Z,9.84
2023-04-11T04:08:59.167Z,9.87
2023-04-11T04:09:59.585Z,9.86
2023-04-11T04:11:00.029Z,9.82
2023-04-11T04:12:00.466Z,9.80
2023-04-11T04:13:00.906Z,9.87
2023-04-11T04:14:01.331Z,9.84
2023-04-11T04:15:01.753Z,9.82
2023-04-11T04:16:03.664Z,9.82
2023-04-11T04:17:02.703Z,9.83
2023-04-11T04:18:03.214Z,9.82
2023-04-11T04:19:03.655Z,9.76
2023-04-11T04:20:04.113Z,9.83
2023-04-11T04:21:04.533Z,9.82
2023-04-11T04:22:04.970Z,9.74
2023-04-11T04:23:05.424Z,9.73
2023-04-11T04:24:05.873Z,9.73
2023-04-11T04:25:06.308Z,9.73
2023-04-11T04:26:06.738Z,9.69
2023-04-11T04:27:07.225Z,9.62
2023-04-11T04:28:07.642Z,9.66
2023-04-11T04:29:08.048Z,9.64
2023-04-11T04:30:08.177Z,9.61
2023-04-11T04:31:08.627Z,9.61
2023-04-11T04:32:09.070Z,9.62
2023-04-11T04:33:09.547Z,9.59
2023-04-11T04:34:09.973Z,9.59
2023-04-11T04:35:10.399Z,9.68
2023-04-11T04:36:10.890Z,9.64
2023-04-11T04:37:11.438Z,9.65
2023-04-11T04:38:11.878Z,9.66
2023-04-11T04:39:12.336Z,9.72
2023-04-11T04:40:12.779Z,9.62
2023-04-11T04:41:13.217Z,9.55
2023-04-11T04:42:13.648Z,9.56
2023-04-11T04:43:14.079Z,9.55
2023-04-11T04:44:14.515Z,9.54
2023-04-11T04:45:14.955Z,9.61
2023-04-11T04:46:15.757Z,9.56
2023-04-11T04:47:16.264Z,9.64
2023-04-11T04:48:16.720Z,9.59
2023-04-11T04:49:17.161Z,9.44
2023-04-11T04:50:17.598Z,9.44
2023-04-11T04:51:18.031Z,9.41
2023-04-11T04:52:18.461Z,9.34
2023-04-11T04:53:18.901Z,9.29
2023-04-11T04:54:19.381Z,9.23
2023-04-11T04:55:19.839Z,9.32
2023-04-11T04:56:20.262Z,9.28
2023-04-11T04:57:20.689Z,9.19
2023-04-11T04:58:21.120Z,9.16
2023-04-11T04:59:21.562Z,9.21
2023-04-11T05:00:23.272Z,9.22
2023-04-11T05:01:22.104Z,9.26
2023-04-11T05:02:22.657Z,9.21
2023-04-11T05:03:22.860Z,9.23
2023-04-11T05:04:22.952Z,9.25
2023-04-11T05:05:22.971Z,9.19
2023-04-11T05:06:23.462Z,9.19
2023-04-11T05:07:23.918Z,9.19
2023-04-11T05:08:24.345Z,9.03
2023-04-11T05:09:24.780Z,9.14
2023-04-11T05:10:25.252Z,9.10
2023-04-11T05:11:25.890Z,9.03
2023-04-11T05:12:26.366Z,8.97
2023-04-11T05:13:26.843Z,9.04
2023-04-11T05:14:27.300Z,9.10
2023-04-11T05:15:27.747Z,9.04
2023-04-11T05:16:28.210Z,9.00
2023-04-11T05:17:28.695Z,9.11
2023-04-11T05:18:29.137Z,9.08
2023-04-11T05:19:29.571Z,9.13
2023-04-11T05:20:29.994Z,9.10
2023-04-11T05:21:30.448Z,9.08
2023-04-11T05:22:30.890Z,9.10
2023-04-11T05:23:31.362Z,9.11
2023-04-11T05:24:31.839Z,9.04
2023-04-11T05:25:32.290Z,9.02
2023-04-11T05:26:32.738Z,9.03
2023-04-11T05:27:33.190Z,9.02
2023-04-11T05:28:33.671Z,9.00
2023-04-11T05:29:34.145Z,8.99
2023-04-11T05:30:34.623Z,8.94
2023-04-11T05:31:35.070Z,8.92
2023-04-11T05:32:35.583Z,8.85
2023-04-11T05:33:36.072Z,8.92
2023-04-11T05:34:36.508Z,8.91
2023-04-11T05:35:36.989Z,8.88
2023-04-11T05:36:37.440Z,8.85
2023-04-11T05:37:37.878Z,8.84
2023-04-11T05:38:38.321Z,8.89
2023-04-11T05:39:38.757Z,8.84
2023-04-11T05:40:39.200Z,8.79
2023-04-11T05:41:39.648Z,8.88
2023-04-11T05:42:40.094Z,8.85
2023-04-11T05:43:40.558Z,8.79
2023-04-11T05:44:41.002Z,8.76
2023-04-11T05:45:41.484Z,8.79
2023-04-11T05:46:41.959Z,8.76
2023-04-11T05:47:42.470Z,8.76
2023-04-11T05:48:42.950Z,8.74
2023-04-11T05:49:43.397Z,8.70
2023-04-11T05:50:43.832Z,8.69
2023-04-11T05:51:44.296Z,8.69
2023-04-11T05:52:44.748Z,8.61
2023-04-11T05:53:45.232Z,8.56
2023-04-11T05:54:45.711Z,8.60
2023-04-11T05:55:46.171Z,8.52
2023-04-11T05:56:46.611Z,8.55
2023-04-11T05:57:47.046Z,8.56
2023-04-11T05:58:47.502Z,8.55
2023-04-11T05:59:47.965Z,8.48
2023-04-11T06:00:48.403Z,8.48
2023-04-11T06:01:48.875Z,8.51
2023-04-11T06:02:49.555Z,8.52
2023-04-11T06:03:49.573Z,8.45
2023-04-11T06:04:50.048Z,8.46
2023-04-11T06:05:50.559Z,8.33
2023-04-11T06:06:51.004Z,8.31
2023-04-11T06:07:51.444Z,8.27
2023-04-11T06:08:51.899Z,8.28
2023-04-11T06:09:52.343Z,8.12
2023-04-11T06:10:52.785Z,8.26
2023-04-11T06:11:53.230Z,8.20
2023-04-11T06:12:53.676Z,8.23
2023-04-11T06:13:54.317Z,8.13
2023-04-11T06:14:54.392Z,8.19
2023-04-11T06:15:54.867Z,8.12
2023-04-11T06:16:55.327Z,8.03
2023-04-11T06:17:55.857Z,8.13
2023-04-11T06:18:56.365Z,8.13
2023-04-11T06:19:56.835Z,8.06
2023-04-11T06:20:57.282Z,8.08
2023-04-11T06:21:57.724Z,8.01
2023-04-11T06:22:58.217Z,7.88
2023-04-11T06:23:58.657Z,8.03
2023-04-11T06:24:59.097Z,8.05
2023-04-11T06:25:59.535Z,7.91
2023-04-11T06:26:59.977Z,8.06
2023-04-11T06:28:00.429Z,8.05
2023-04-11T06:29:00.884Z,8.20
2023-04-11T06:30:02.340Z,8.13
2023-04-11T06:31:01.653Z,8.08
2023-04-11T06:32:02.166Z,8.10
2023-04-11T06:33:02.664Z,8.08
2023-04-11T06:34:03.139Z,8.08
2023-04-11T06:35:03.613Z,8.10
2023-04-11T06:36:06.077Z,8.10
2023-04-11T06:37:04.308Z,8.05
2023-04-11T06:38:04.764Z,8.08
2023-04-11T06:39:05.210Z,8.05
2023-04-11T06:40:05.669Z,8.00
2023-04-11T06:41:06.115Z,7.98
2023-04-11T06:42:06.576Z,8.03
2023-04-11T06:43:07.042Z,8.01
2023-04-11T06:44:07.514Z,8.06
2023-04-11T06:45:08.020Z,7.98
2023-04-11T06:46:08.539Z,8.01
2023-04-11T06:47:09.014Z,8.03
2023-04-11T06:48:09.487Z,8.08
2023-04-11T06:49:09.995Z,8.08
2023-04-11T06:50:10.454Z,8.12
2023-04-11T06:51:10.964Z,8.09
2023-04-11T06:52:11.424Z,8.12
2023-04-11T06:53:11.934Z,8.05
2023-04-11T06:54:12.393Z,8.12
2023-04-11T06:55:12.837Z,8.10
2023-04-11T06:56:13.292Z,8.15
2023-04-11T06:57:13.764Z,8.12
2023-04-11T06:58:14.203Z,8.16
2023-04-11T06:59:14.669Z,8.15
2023-04-11T07:00:15.139Z,8.13
2023-04-11T07:01:15.604Z,8.13
2023-04-11T07:02:16.185Z,8.15
2023-04-11T07:03:16.959Z,8.18
2023-04-11T07:04:17.265Z,8.23
2023-04-11T07:05:17.231Z,8.18
2023-04-11T07:06:17.698Z,8.28
2023-04-11T07:07:18.153Z,8.24
2023-04-11T07:08:18.655Z,8.24
2023-04-11T07:09:19.134Z,8.23
2023-04-11T07:10:19.605Z,8.33
2023-04-11T07:11:20.227Z,8.33
2023-04-11T07:12:20.713Z,8.33
2023-04-11T07:13:21.194Z,8.30
2023-04-11T07:14:21.671Z,8.30
2023-04-11T07:15:22.134Z,8.34
2023-04-11T07:16:22.649Z,8.45
2023-04-11T07:17:23.190Z,8.48
2023-04-11T07:18:23.660Z,8.49
2023-04-11T07:19:24.139Z,8.49
2023-04-11T07:20:24.591Z,8.48
2023-04-11T07:21:25.050Z,8.55
2023-04-11T07:22:25.506Z,8.53
2023-04-11T07:23:25.978Z,8.60
2023-04-11T07:24:26.431Z,8.56
2023-04-11T07:25:26.876Z,8.64
2023-04-11T07:26:27.340Z,8.67
2023-04-11T07:27:27.788Z,8.69
2023-04-11T07:28:28.255Z,8.48
2023-04-11T07:29:28.740Z,8.60
2023-04-11T07:30:29.179Z,8.60
2023-04-11T07:31:29.653Z,8.58
2023-04-11T07:32:30.173Z,8.58
2023-04-11T07:33:30.679Z,8.61
2023-04-11T07:34:31.148Z,8.49
2023-04-11T07:35:31.607Z,8.60
2023-04-11T07:36:32.062Z,8.60
2023-04-11T07:37:32.542Z,8.56
2023-04-11T07:38:33.023Z,8.61
2023-04-11T07:39:33.470Z,8.61
2023-04-11T07:40:33.944Z,8.64
2023-04-11T07:41:34.422Z,8.63
2023-04-11T07:42:34.935Z,8.63
2023-04-11T07:43:35.396Z,8.70
2023-04-11T07:44:35.889Z,8.67
2023-04-11T07:45:36.374Z,8.73
2023-04-11T07:46:36.875Z,8.73
2023-04-11T07:47:37.374Z,8.70
2023-04-11T07:48:37.887Z,8.78
2023-04-11T07:49:38.351Z,8.82
2023-04-11T07:50:38.829Z,8.87
2023-04-11T07:51:39.311Z,8.85
2023-04-11T07:52:39.774Z,8.94
2023-04-11T07:53:40.229Z,9.00
2023-04-11T07:54:40.701Z,9.03
2023-04-11T07:55:41.159Z,9.00
2023-04-11T07:56:41.611Z,8.99
2023-04-11T07:57:42.084Z,8.92
2023-04-11T07:58:42.542Z,8.94
2023-04-11T07:59:42.990Z,8.97
2023-04-11T08:00:43.455Z,8.99
2023-04-11T08:01:43.991Z,9.10
2023-04-11T08:02:44.706Z,9.10
2023-04-11T08:03:44.787Z,9.06
2023-04-11T08:04:45.372Z,9.08
2023-04-11T08:05:45.911Z,9.04
2023-04-11T08:06:46.374Z,9.19
2023-04-11T08:07:47.009Z,9.21
2023-04-11T08:08:47.545Z,9.23
2023-04-11T08:09:47.995Z,9.21
2023-04-11T08:10:50.078Z,9.23
2023-04-11T08:11:48.929Z,9.22
2023-04-11T08:12:49.414Z,9.16
2023-04-11T08:13:49.870Z,9.19
2023-04-11T08:14:50.323Z,9.28
2023-04-11T08:15:50.794Z,9.31
2023-04-11T08:16:52.827Z,9.36
2023-04-11T08:17:51.870Z,9.28
2023-04-11T08:18:52.359Z,9.26
2023-04-11T08:19:52.816Z,9.28
2023-04-11T08:20:53.296Z,9.21
2023-04-11T08:21:53.762Z,9.25
2023-04-11T08:22:54.236Z,9.19
2023-04-11T08:23:55.128Z,9.31
2023-04-11T08:24:55.176Z,9.34
2023-04-11T08:25:55.648Z,9.28
2023-04-11T08:26:56.103Z,9.21
2023-04-11T08:27:56.559Z,9.21
2023-04-11T08:28:57.061Z,9.29
2023-04-11T08:29:57.558Z,9.39
2023-04-11T08:30:58.061Z,9.40
2023-04-11T08:31:58.546Z,9.48
2023-04-11T08:32:59.055Z,9.50
2023-04-11T08:34:00.911Z,9.50
2023-04-11T08:34:59.973Z,9.58
2023-04-11T08:36:00.469Z,9.64
2023-04-11T08:37:00.960Z,9.66
2023-04-11T08:38:01.422Z,9.74
2023-04-11T08:39:01.889Z,9.73
2023-04-11T08:40:02.362Z,9.77
2023-04-11T08:41:02.850Z,9.84
2023-04-11T08:42:03.313Z,9.87
2023-04-11T08:43:03.793Z,9.98
2023-04-11T08:44:04.287Z,9.94
2023-04-11T08:45:04.750Z,9.94
2023-04-11T08:46:05.295Z,9.99
2023-04-11T08:47:05.831Z,10.02
2023-04-11T08:48:06.370Z,10.12
2023-04-11T08:49:06.955Z,10.19
2023-04-11T08:50:07.476Z,10.22
2023-04-11T08:51:08.028Z,10.31
2023-04-11T08:52:08.546Z,10.19
2023-04-11T08:53:09.072Z,10.13
2023-04-11T08:54:09.612Z,10.15
2023-04-11T08:55:10.214Z,10.05
2023-04-11T08:56:10.732Z,10.07
2023-04-11T08:57:11.247Z,10.04
2023-04-11T08:58:11.751Z,10.02
2023-04-11T08:59:12.256Z,10.12
2023-04-11T09:00:12.767Z,10.13
2023-04-11T09:01:13.338Z,10.05
2023-04-11T09:02:13.938Z,10.16
2023-04-11T09:03:14.626Z,10.15
2023-04-11T09:04:14.743Z,10.30
2023-04-11T09:05:15.248Z,10.33
2023-04-11T09:06:15.765Z,10.22
2023-04-11T09:07:16.295Z,10.31
2023-04-11T09:08:16.897Z,10.35
2023-04-11T09:09:17.406Z,10.37
2023-04-11T09:10:17.917Z,10.33
2023-04-11T09:11:18.423Z,10.34
2023-04-11T09:12:18.919Z,10.46
2023-04-11T09:13:19.564Z,10.64
2023-04-11T09:14:20.247Z,10.67
2023-04-11T09:15:20.311Z,10.53
2023-04-11T09:16:20.920Z,10.69
2023-04-11T09:17:21.031Z,10.76
2023-04-11T09:18:21.619Z,10.64
2023-04-11T09:19:22.124Z,10.71
2023-04-11T09:20:22.627Z,10.71
2023-04-11T09:21:23.142Z,10.78
2023-04-11T09:22:23.684Z,10.74
2023-04-11T09:23:27.138Z,10.89
2023-04-11T09:24:24.314Z,10.97
2023-04-11T09:25:24.891Z,10.92
2023-04-11T09:26:25.459Z,10.90
2023-04-11T09:27:25.964Z,11.02
2023-04-11T09:28:26.493Z,11.07
2023-04-11T09:29:27.101Z,10.94
2023-04-11T09:30:27.625Z,11.18
2023-04-11T09:31:28.198Z,11.27
2023-04-11T09:32:29.231Z,11.41
2023-04-11T09:33:29.108Z,11.36
2023-04-11T09:34:29.635Z,11.45
2023-04-11T09:35:30.170Z,11.36
2023-04-11T09:36:30.699Z,11.63
2023-04-11T09:37:31.205Z,11.68
2023-04-11T09:38:31.729Z,11.63
2023-04-11T09:39:32.252Z,11.75
2023-04-11T09:40:32.778Z,11.81
2023-04-11T09:41:33.281Z,11.78
2023-04-11T09:42:33.795Z,12.03
2023-04-11T09:43:34.313Z,11.78
2023-04-11T09:44:34.833Z,12.02
2023-04-11T09:45:44.254Z,12.02
2023-04-11T09:46:35.569Z,11.97
2023-04-11T09:47:36.384Z,11.94
2023-04-11T09:48:46.115Z,12.15
2023-04-11T09:49:36.450Z,12.17
2023-04-11T09:50:36.984Z,12.02
2023-04-11T09:51:37.511Z,12.25
2023-04-11T09:52:38.026Z,12.31
2023-04-11T09:53:38.692Z,12.46
2023-04-11T09:54:39.215Z,12.43
2023-04-11T09:55:39.771Z,12.24
2023-04-11T09:56:40.309Z,12.10
2023-04-11T09:57:40.824Z,11.87
2023-04-11T09:58:41.324Z,11.88
2023-04-11T09:59:41.832Z,11.77
2023-04-11T10:00:42.393Z,12.00
2023-04-11T10:01:43.048Z,11.78
2023-04-11T10:02:43.209Z,11.77
2023-04-11T10:03:43.339Z,11.78
2023-04-11T10:04:43.924Z,11.70
2023-04-11T10:05:44.476Z,11.86
2023-04-11T10:06:44.990Z,12.07
2023-04-11T10:07:45.504Z,12.00
2023-04-11T10:08:46.015Z,12.13
2023-04-11T10:09:46.532Z,12.00
2023-04-11T10:10:47.041Z,11.80
2023-04-11T10:11:47.565Z,11.75
2023-04-11T10:12:48.095Z,11.72
2023-04-11T10:13:48.618Z,11.65
2023-04-11T10:14:49.167Z,11.80
2023-04-11T10:15:49.692Z,12.13
2023-04-11T10:16:50.256Z,12.28
2023-04-11T10:17:50.839Z,12.36
2023-04-11T10:18:51.392Z,12.40
2023-04-11T10:19:51.905Z,12.45
2023-04-11T10:20:52.429Z,12.72
2023-04-11T10:21:52.938Z,12.80
2023-04-11T10:22:53.452Z,12.78
2023-04-11T10:23:54.158Z,12.43
2023-04-11T10:24:54.250Z,12.58
2023-04-11T10:25:54.755Z,12.67
2023-04-11T10:26:55.278Z,12.53
2023-04-11T10:27:55.816Z,12.58
2023-04-11T10:28:56.316Z,12.82
2023-04-11T10:29:56.842Z,12.80
2023-04-11T10:30:57.347Z,12.85
2023-04-11T10:31:57.992Z,12.75
2023-04-11T10:32:58.055Z,12.65
2023-04-11T10:33:58.604Z,12.49
2023-04-11T10:34:59.141Z,12.49
2023-04-11T10:35:59.694Z,12.64
2023-04-11T10:37:00.240Z,12.75
2023-04-11T10:38:00.753Z,12.85
2023-04-11T10:39:01.269Z,12.72
2023-04-11T10:40:01.869Z,12.83
2023-04-11T10:41:02.392Z,13.15
2023-04-11T10:42:02.907Z,12.97
2023-04-11T10:43:03.435Z,12.97
2023-04-11T10:44:03.967Z,12.87
2023-04-11T10:45:04.488Z,12.90
2023-04-11T10:46:05.010Z,12.98
2023-04-11T10:47:05.613Z,12.80
2023-04-11T10:48:06.192Z,12.85
2023-04-11T10:49:06.738Z,12.90
2023-04-11T10:50:07.362Z,12.90
2023-04-11T10:51:07.905Z,12.57
2023-04-11T10:52:08.428Z,12.64
2023-04-11T10:53:08.943Z,12.86
2023-04-11T10:54:09.465Z,12.86
2023-04-11T10:55:09.977Z,12.86
2023-04-11T10:56:10.497Z,12.94
2023-04-11T10:57:11.046Z,12.68
2023-04-11T10:58:11.563Z,12.79
2023-04-11T10:59:12.080Z,12.75
2023-04-11T11:00:12.620Z,12.65
2023-04-11T11:01:21.360Z,12.46
2023-04-11T11:02:13.480Z,12.31
2023-04-11T11:03:13.653Z,12.29
2023-04-11T11:04:14.323Z,12.28
2023-04-11T11:05:13.913Z,12.58
2023-04-11T11:06:14.428Z,12.64
2023-04-11T11:07:14.962Z,12.58
2023-04-11T11:08:15.471Z,12.57
2023-04-11T11:09:16.098Z,12.46
2023-04-11T11:10:16.622Z,12.65
2023-04-11T11:11:17.175Z,12.72
2023-04-11T11:12:17.714Z,12.76
2023-04-11T11:13:18.234Z,12.67
2023-04-11T11:14:18.727Z,12.87
2023-04-11T11:15:19.279Z,13.08
2023-04-11T11:16:19.888Z,13.01
2023-04-11T11:17:20.485Z,12.95
2023-04-11T11:18:21.027Z,12.94
2023-04-11T11:19:21.565Z,12.95
2023-04-11T11:20:22.074Z,13.27
2023-04-11T11:21:27.725Z,13.27
2023-04-11T11:22:22.783Z,13.33
2023-04-11T11:23:23.325Z,13.33
2023-04-11T11:24:23.859Z,13.19
2023-04-11T11:25:24.419Z,13.22
2023-04-11T11:26:24.952Z,13.31
2023-04-11T11:27:25.477Z,13.27
2023-04-11T11:28:25.997Z,13.39
2023-04-11T11:29:26.502Z,13.52
2023-04-11T11:30:27.037Z,13.62
2023-04-11T11:31:27.637Z,13.57
2023-04-11T11:32:28.742Z,13.57
2023-04-11T11:33:28.464Z,13.42
2023-04-11T11:34:28.995Z,13.56
2023-04-11T11:35:29.514Z,13.49
2023-04-11T11:36:30.066Z,13.71
2023-04-11T11:37:30.605Z,13.44
2023-04-11T11:38:31.139Z,13.04
2023-04-11T11:39:31.669Z,13.09
2023-04-11T11:40:32.173Z,13.01
2023-04-11T11:41:32.702Z,13.08
2023-04-11T11:42:33.226Z,13.31
2023-04-11T11:43:33.743Z,13.70
2023-04-11T11:44:34.278Z,13.79
2023-04-11T11:45:34.795Z,14.10
2023-04-11T11:46:35.373Z,14.12
2023-04-11T11:47:35.955Z,14.11
2023-04-11T11:48:36.521Z,13.87
2023-04-11T11:49:37.077Z,14.08
2023-04-11T11:50:37.640Z,14.15
2023-04-11T11:51:38.208Z,13.90
2023-04-11T11:52:38.753Z,13.99
2023-04-11T11:53:39.333Z,13.93
2023-04-11T11:54:39.897Z,13.75
2023-04-11T11:55:40.464Z,14.08
2023-04-11T11:56:41.061Z,14.47
2023-04-11T11:57:41.625Z,14.43
2023-04-11T11:58:42.210Z,14.53
2023-04-11T11:59:42.777Z,14.79
2023-04-11T12:00:43.409Z,14.88
2023-04-11T12:01:43.989Z,14.85
2023-04-11T12:02:45.019Z,14.65
2023-04-11T12:03:44.804Z,14.51
2023-04-11T12:04:45.148Z,14.08
2023-04-11T12:05:45.176Z,13.95
2023-04-11T12:06:45.728Z,13.56
2023-04-11T12:07:46.329Z,13.65
2023-04-11T12:08:47.515Z,14.10
2023-04-11T12:09:46.974Z,14.18
2023-04-11T12:10:47.522Z,13.87
2023-04-11T12:11:48.065Z,13.93
2023-04-11T12:12:53.684Z,14.17
2023-04-11T12:13:48.821Z,14.12
2023-04-11T12:14:49.395Z,13.79
2023-04-11T12:15:49.984Z,13.59
2023-04-11T12:16:50.579Z,13.57
2023-04-11T12:17:51.146Z,13.68
2023-04-11T12:18:51.701Z,13.85
2023-04-11T12:19:52.232Z,13.89
2023-04-11T12:20:52.769Z,13.96
2023-04-11T12:21:53.304Z,14.03
2023-04-11T12:22:54.851Z,14.25
2023-04-11T12:23:53.987Z,14.17
2023-04-11T12:24:54.535Z,13.86
2023-04-11T12:25:55.040Z,13.89
2023-04-11T12:27:06.118Z,13.86
2023-04-11T12:27:55.799Z,13.83
2023-04-11T12:28:56.467Z,13.86
2023-04-11T12:29:56.495Z,13.89
2023-04-11T12:30:57.065Z,13.78
2023-04-11T12:31:57.585Z,13.79
2023-04-11T12:32:58.153Z,13.74
2023-04-11T12:33:58.835Z,13.63
2023-04-11T12:34:58.788Z,13.67
2023-04-11T12:35:59.356Z,13.53
2023-04-11T12:36:59.884Z,13.54
2023-04-11T12:38:00.503Z,13.42
2023-04-11T12:39:01.053Z,13.42
2023-04-11T12:40:01.656Z,13.30
2023-04-11T12:41:20.255Z,13.42
2023-04-11T12:42:02.441Z,13.47
2023-04-11T12:43:03.010Z,13.60
2023-04-11T12:44:03.598Z,13.71
2023-04-11T12:45:04.124Z,13.68
2023-04-11T12:46:04.677Z,13.63
2023-04-11T12:47:05.255Z,13.25
2023-04-11T12:48:05.856Z,13.22
2023-04-11T12:49:06.400Z,13.01
2023-04-11T12:50:06.943Z,13.20
2023-04-11T12:51:07.502Z,13.35
2023-04-11T12:52:08.039Z,13.38
2023-04-11T12:53:08.594Z,13.42
2023-04-11T12:54:09.131Z,13.41
2023-04-11T12:55:09.821Z,13.52
2023-04-11T12:56:09.869Z,13.65
2023-04-11T12:57:10.400Z,13.59
2023-04-11T12:58:10.929Z,13.53
2023-04-11T12:59:11.461Z,13.49
2023-04-11T13:00:12.001Z,13.56
2023-04-11T13:01:12.543Z,13.50
2023-04-11T13:02:13.155Z,13.79
2023-04-11T13:03:13.567Z,13.90
2023-04-11T13:04:13.862Z,14.05
2023-04-11T13:05:14.652Z,13.87
2023-04-11T13:06:14.342Z,14.07
2023-04-11T13:07:14.867Z,14.28